sensor_id;sensor_type;location;lat;lon;timestamp;P1;durP1;ratioP1;P2;durP2;ratioP2
77451;SDS011;66537;52.370;4.832;2023-09-30T00:00:56;12.13;;;4.00;;
77451;SDS011;66537;52.370;4.832;2023-09-30T00:03:22;11.02;;;3.33;;
77451;SDS011;66537;52.370;4.832;2023-09-30T00:05:47;12.73;;;3.30;;
77451;SDS011;66537;52.370;4.832;2023-09-30T00:08:12;13.38;;;3.35;;
77451;SDS011;66537;52.370;4.832;2023-09-30T00:10:38;11.57;;;3.30;;
77451;SDS011;66537;52.370;4.832;2023-09-30T00:13:03;11.82;;;2.92;;
77451;SDS011;66537;52.370;4.832;2023-09-30T00:15:28;16.05;;;3.65;;
77451;SDS011;66537;52.370;4.832;2023-09-30T00:17:54;15.57;;;3.67;;
77451;SDS011;66537;52.370;4.832;2023-09-30T00:20:19;11.87;;;3.70;;
77451;SDS011;66537;52.370;4.832;2023-09-30T00:22:45;11.48;;;3.25;;
77451;SDS011;66537;52.370;4.832;2023-09-30T00:25:11;13.57;;;3.72;;
77451;SDS011;66537;52.370;4.832;2023-09-30T00:27:36;16.02;;;3.58;;
77451;SDS011;66537;52.370;4.832;2023-09-30T00:30:02;15.68;;;4.22;;
77451;SDS011;66537;52.370;4.832;2023-09-30T00:32:28;12.95;;;4.10;;
77451;SDS011;66537;52.370;4.832;2023-09-30T00:34:53;15.18;;;4.28;;
77451;SDS011;66537;52.370;4.832;2023-09-30T00:37:19;13.85;;;3.22;;
77451;SDS011;66537;52.370;4.832;2023-09-30T00:39:45;15.60;;;3.83;;
77451;SDS011;66537;52.370;4.832;2023-09-30T00:42:11;12.20;;;3.80;;
77451;SDS011;66537;52.370;4.832;2023-09-30T00:44:36;12.93;;;3.13;;
77451;SDS011;66537;52.370;4.832;2023-09-30T00:47:02;14.95;;;3.42;;
77451;SDS011;66537;52.370;4.832;2023-09-30T00:49:27;14.63;;;4.05;;
77451;SDS011;66537;52.370;4.832;2023-09-30T00:51:54;15.52;;;3.67;;
77451;SDS011;66537;52.370;4.832;2023-09-30T00:54:20;18.60;;;3.72;;
77451;SDS011;66537;52.370;4.832;2023-09-30T00:56:49;12.25;;;4.07;;
77451;SDS011;66537;52.370;4.832;2023-09-30T00:59:17;12.60;;;3.78;;
77451;SDS011;66537;52.370;4.832;2023-09-30T01:01:44;13.55;;;3.70;;
77451;SDS011;66537;52.370;4.832;2023-09-30T01:04:11;13.48;;;3.75;;
77451;SDS011;66537;52.370;4.832;2023-09-30T01:06:37;13.68;;;4.05;;
77451;SDS011;66537;52.370;4.832;2023-09-30T01:09:04;16.52;;;3.50;;
77451;SDS011;66537;52.370;4.832;2023-09-30T01:11:29;14.35;;;4.20;;
77451;SDS011;66537;52.370;4.832;2023-09-30T01:13:57;13.10;;;3.63;;
77451;SDS011;66537;52.370;4.832;2023-09-30T01:16:23;14.95;;;4.35;;
77451;SDS011;66537;52.370;4.832;2023-09-30T01:18:49;12.77;;;4.47;;
77451;SDS011;66537;52.370;4.832;2023-09-30T01:21:14;16.33;;;4.40;;
77451;SDS011;66537;52.370;4.832;2023-09-30T01:23:40;12.25;;;4.15;;
77451;SDS011;66537;52.370;4.832;2023-09-30T01:26:09;14.68;;;4.50;;
77451;SDS011;66537;52.370;4.832;2023-09-30T01:28:37;12.82;;;3.53;;
77451;SDS011;66537;52.370;4.832;2023-09-30T01:31:02;17.67;;;4.13;;
77451;SDS011;66537;52.370;4.832;2023-09-30T01:33:28;18.45;;;4.57;;
77451;SDS011;66537;52.370;4.832;2023-09-30T01:35:53;15.57;;;4.80;;
77451;SDS011;66537;52.370;4.832;2023-09-30T01:38:19;11.23;;;3.78;;
77451;SDS011;66537;52.370;4.832;2023-09-30T01:40:45;12.48;;;4.38;;
77451;SDS011;66537;52.370;4.832;2023-09-30T01:43:11;14.32;;;4.68;;
77451;SDS011;66537;52.370;4.832;2023-09-30T01:45:40;17.15;;;5.32;;
77451;SDS011;66537;52.370;4.832;2023-09-30T01:48:06;13.57;;;4.63;;
77451;SDS011;66537;52.370;4.832;2023-09-30T01:50:32;15.40;;;4.20;;
77451;SDS011;66537;52.370;4.832;2023-09-30T01:52:57;13.55;;;4.30;;
77451;SDS011;66537;52.370;4.832;2023-09-30T01:55:23;18.48;;;4.55;;
77451;SDS011;66537;52.370;4.832;2023-09-30T01:57:48;18.15;;;4.50;;
77451;SDS011;66537;52.370;4.832;2023-09-30T02:00:13;13.07;;;4.10;;
77451;SDS011;66537;52.370;4.832;2023-09-30T02:02:39;16.23;;;4.82;;
77451;SDS011;66537;52.370;4.832;2023-09-30T02:05:04;18.58;;;4.43;;
77451;SDS011;66537;52.370;4.832;2023-09-30T02:07:33;18.67;;;5.13;;
77451;SDS011;66537;52.370;4.832;2023-09-30T02:09:59;12.95;;;4.82;;
77451;SDS011;66537;52.370;4.832;2023-09-30T02:12:24;15.27;;;5.40;;
77451;SDS011;66537;52.370;4.832;2023-09-30T02:14:51;12.82;;;4.38;;
77451;SDS011;66537;52.370;4.832;2023-09-30T02:17:17;17.03;;;5.20;;
77451;SDS011;66537;52.370;4.832;2023-09-30T02:19:42;14.65;;;4.22;;
77451;SDS011;66537;52.370;4.832;2023-09-30T02:22:08;11.82;;;4.15;;
77451;SDS011;66537;52.370;4.832;2023-09-30T02:24:34;18.48;;;4.60;;
77451;SDS011;66537;52.370;4.832;2023-09-30T02:26:59;16.13;;;5.00;;
77451;SDS011;66537;52.370;4.832;2023-09-30T02:29:24;19.07;;;5.13;;
77451;SDS011;66537;52.370;4.832;2023-09-30T02:31:50;16.15;;;5.88;;
77451;SDS011;66537;52.370;4.832;2023-09-30T02:34:16;15.00;;;5.18;;
77451;SDS011;66537;52.370;4.832;2023-09-30T02:36:41;16.10;;;4.67;;
77451;SDS011;66537;52.370;4.832;2023-09-30T02:39:07;16.75;;;5.28;;
77451;SDS011;66537;52.370;4.832;2023-09-30T02:41:34;14.70;;;5.45;;
77451;SDS011;66537;52.370;4.832;2023-09-30T02:44:00;20.27;;;5.28;;
77451;SDS011;66537;52.370;4.832;2023-09-30T02:46:25;15.77;;;4.90;;
77451;SDS011;66537;52.370;4.832;2023-09-30T02:48:53;13.73;;;5.03;;
77451;SDS011;66537;52.370;4.832;2023-09-30T02:51:18;16.77;;;5.28;;
77451;SDS011;66537;52.370;4.832;2023-09-30T02:53:43;13.50;;;4.38;;
77451;SDS011;66537;52.370;4.832;2023-09-30T02:56:09;17.05;;;5.45;;
77451;SDS011;66537;52.370;4.832;2023-09-30T02:58:35;21.33;;;6.10;;
77451;SDS011;66537;52.370;4.832;2023-09-30T03:01:00;18.20;;;5.88;;
77451;SDS011;66537;52.370;4.832;2023-09-30T03:03:26;13.55;;;5.25;;
77451;SDS011;66537;52.370;4.832;2023-09-30T03:05:52;21.10;;;5.28;;
77451;SDS011;66537;52.370;4.832;2023-09-30T03:08:19;10.57;;;4.35;;
77451;SDS011;66537;52.370;4.832;2023-09-30T03:10:44;13.30;;;4.50;;
77451;SDS011;66537;52.370;4.832;2023-09-30T03:13:11;13.93;;;4.90;;
77451;SDS011;66537;52.370;4.832;2023-09-30T03:15:36;14.00;;;5.15;;
77451;SDS011;66537;52.370;4.832;2023-09-30T03:18:03;15.07;;;5.18;;
77451;SDS011;66537;52.370;4.832;2023-09-30T03:20:29;12.23;;;4.78;;
77451;SDS011;66537;52.370;4.832;2023-09-30T03:22:56;14.35;;;4.88;;
77451;SDS011;66537;52.370;4.832;2023-09-30T03:25:22;14.73;;;5.57;;
77451;SDS011;66537;52.370;4.832;2023-09-30T03:27:47;14.05;;;5.25;;
77451;SDS011;66537;52.370;4.832;2023-09-30T03:30:14;12.68;;;5.13;;
77451;SDS011;66537;52.370;4.832;2023-09-30T03:32:41;13.63;;;4.88;;
77451;SDS011;66537;52.370;4.832;2023-09-30T03:35:07;14.68;;;5.57;;
77451;SDS011;66537;52.370;4.832;2023-09-30T03:37:36;17.80;;;5.60;;
77451;SDS011;66537;52.370;4.832;2023-09-30T03:40:02;15.70;;;5.95;;
77451;SDS011;66537;52.370;4.832;2023-09-30T03:42:38;17.73;;;5.82;;
77451;SDS011;66537;52.370;4.832;2023-09-30T03:45:05;15.68;;;5.53;;
77451;SDS011;66537;52.370;4.832;2023-09-30T03:47:37;13.80;;;5.43;;
77451;SDS011;66537;52.370;4.832;2023-09-30T03:50:03;14.90;;;5.35;;
77451;SDS011;66537;52.370;4.832;2023-09-30T03:52:30;15.35;;;5.70;;
77451;SDS011;66537;52.370;4.832;2023-09-30T03:54:58;17.58;;;6.82;;
77451;SDS011;66537;52.370;4.832;2023-09-30T03:57:31;15.07;;;5.40;;
77451;SDS011;66537;52.370;4.832;2023-09-30T03:59:57;15.80;;;5.43;;
77451;SDS011;66537;52.370;4.832;2023-09-30T04:02:22;14.15;;;5.60;;
77451;SDS011;66537;52.370;4.832;2023-09-30T04:04:47;13.43;;;5.20;;
77451;SDS011;66537;52.370;4.832;2023-09-30T04:07:15;15.85;;;5.53;;
77451;SDS011;66537;52.370;4.832;2023-09-30T04:09:41;15.77;;;5.65;;
77451;SDS011;66537;52.370;4.832;2023-09-30T04:12:07;14.02;;;5.93;;
77451;SDS011;66537;52.370;4.832;2023-09-30T04:14:32;15.98;;;5.60;;
77451;SDS011;66537;52.370;4.832;2023-09-30T04:16:58;15.60;;;6.17;;
77451;SDS011;66537;52.370;4.832;2023-09-30T04:19:23;17.47;;;5.97;;
77451;SDS011;66537;52.370;4.832;2023-09-30T04:21:48;16.77;;;6.97;;
77451;SDS011;66537;52.370;4.832;2023-09-30T04:24:14;17.85;;;6.15;;
77451;SDS011;66537;52.370;4.832;2023-09-30T04:26:39;15.90;;;6.20;;
77451;SDS011;66537;52.370;4.832;2023-09-30T04:29:06;13.40;;;5.85;;
77451;SDS011;66537;52.370;4.832;2023-09-30T04:31:36;21.08;;;6.90;;
77451;SDS011;66537;52.370;4.832;2023-09-30T04:34:04;19.70;;;6.30;;
77451;SDS011;66537;52.370;4.832;2023-09-30T04:36:29;15.55;;;5.95;;
77451;SDS011;66537;52.370;4.832;2023-09-30T04:38:55;19.70;;;7.38;;
77451;SDS011;66537;52.370;4.832;2023-09-30T04:41:21;16.35;;;6.50;;
77451;SDS011;66537;52.370;4.832;2023-09-30T04:43:46;18.23;;;6.38;;
77451;SDS011;66537;52.370;4.832;2023-09-30T04:46:12;15.73;;;6.70;;
77451;SDS011;66537;52.370;4.832;2023-09-30T04:48:38;16.98;;;6.32;;
77451;SDS011;66537;52.370;4.832;2023-09-30T04:51:06;15.93;;;6.60;;
77451;SDS011;66537;52.370;4.832;2023-09-30T04:53:33;21.35;;;6.75;;
77451;SDS011;66537;52.370;4.832;2023-09-30T04:55:59;18.15;;;7.43;;
77451;SDS011;66537;52.370;4.832;2023-09-30T04:58:24;23.67;;;7.40;;
77451;SDS011;66537;52.370;4.832;2023-09-30T05:00:50;16.38;;;6.57;;
77451;SDS011;66537;52.370;4.832;2023-09-30T05:03:15;18.98;;;7.05;;
77451;SDS011;66537;52.370;4.832;2023-09-30T05:05:41;18.63;;;6.03;;
77451;SDS011;66537;52.370;4.832;2023-09-30T05:08:06;15.40;;;6.85;;
77451;SDS011;66537;52.370;4.832;2023-09-30T05:10:32;16.85;;;6.22;;
77451;SDS011;66537;52.370;4.832;2023-09-30T05:12:58;15.95;;;5.97;;
77451;SDS011;66537;52.370;4.832;2023-09-30T05:15:23;15.15;;;6.07;;
77451;SDS011;66537;52.370;4.832;2023-09-30T05:17:49;18.80;;;6.23;;
77451;SDS011;66537;52.370;4.832;2023-09-30T05:20:14;17.92;;;5.95;;
77451;SDS011;66537;52.370;4.832;2023-09-30T05:22:42;14.38;;;5.50;;
77451;SDS011;66537;52.370;4.832;2023-09-30T05:25:10;20.05;;;6.75;;
77451;SDS011;66537;52.370;4.832;2023-09-30T05:27:37;17.60;;;5.65;;
77451;SDS011;66537;52.370;4.832;2023-09-30T05:30:03;12.77;;;5.97;;
77451;SDS011;66537;52.370;4.832;2023-09-30T05:32:31;16.20;;;5.72;;
77451;SDS011;66537;52.370;4.832;2023-09-30T05:34:56;17.23;;;6.15;;
77451;SDS011;66537;52.370;4.832;2023-09-30T05:37:23;17.10;;;6.50;;
77451;SDS011;66537;52.370;4.832;2023-09-30T05:39:49;14.60;;;5.30;;
77451;SDS011;66537;52.370;4.832;2023-09-30T05:42:16;19.27;;;6.22;;
77451;SDS011;66537;52.370;4.832;2023-09-30T05:44:41;17.67;;;6.35;;
77451;SDS011;66537;52.370;4.832;2023-09-30T05:47:08;12.40;;;5.45;;
77451;SDS011;66537;52.370;4.832;2023-09-30T05:49:33;17.50;;;6.32;;
77451;SDS011;66537;52.370;4.832;2023-09-30T05:52:02;18.05;;;6.38;;
77451;SDS011;66537;52.370;4.832;2023-09-30T05:54:28;17.05;;;6.43;;
77451;SDS011;66537;52.370;4.832;2023-09-30T05:56:55;17.42;;;6.10;;
77451;SDS011;66537;52.370;4.832;2023-09-30T05:59:21;14.30;;;5.03;;
77451;SDS011;66537;52.370;4.832;2023-09-30T06:01:46;19.80;;;6.70;;
77451;SDS011;66537;52.370;4.832;2023-09-30T06:04:12;16.03;;;5.57;;
77451;SDS011;66537;52.370;4.832;2023-09-30T06:06:37;14.13;;;5.65;;
77451;SDS011;66537;52.370;4.832;2023-09-30T06:09:03;14.88;;;5.72;;
77451;SDS011;66537;52.370;4.832;2023-09-30T06:11:32;15.32;;;5.78;;
77451;SDS011;66537;52.370;4.832;2023-09-30T06:13:58;18.48;;;5.93;;
77451;SDS011;66537;52.370;4.832;2023-09-30T06:16:26;17.88;;;6.43;;
77451;SDS011;66537;52.370;4.832;2023-09-30T06:18:55;18.15;;;6.38;;
77451;SDS011;66537;52.370;4.832;2023-09-30T06:21:21;17.00;;;5.88;;
77451;SDS011;66537;52.370;4.832;2023-09-30T06:23:49;18.80;;;6.72;;
77451;SDS011;66537;52.370;4.832;2023-09-30T06:26:17;18.38;;;6.55;;
77451;SDS011;66537;52.370;4.832;2023-09-30T06:28:43;25.00;;;7.65;;
77451;SDS011;66537;52.370;4.832;2023-09-30T06:31:10;14.40;;;6.47;;
77451;SDS011;66537;52.370;4.832;2023-09-30T06:33:36;17.95;;;7.40;;
77451;SDS011;66537;52.370;4.832;2023-09-30T06:36:11;16.88;;;7.40;;
77451;SDS011;66537;52.370;4.832;2023-09-30T06:38:41;19.85;;;8.73;;
77451;SDS011;66537;52.370;4.832;2023-09-30T06:41:16;14.95;;;6.72;;
77451;SDS011;66537;52.370;4.832;2023-09-30T06:43:43;19.75;;;7.25;;
77451;SDS011;66537;52.370;4.832;2023-09-30T06:46:09;20.52;;;7.60;;
77451;SDS011;66537;52.370;4.832;2023-09-30T06:48:35;17.63;;;7.60;;
77451;SDS011;66537;52.370;4.832;2023-09-30T06:51:01;20.90;;;8.18;;
77451;SDS011;66537;52.370;4.832;2023-09-30T06:53:27;17.58;;;7.50;;
77451;SDS011;66537;52.370;4.832;2023-09-30T06:55:53;20.90;;;7.88;;
77451;SDS011;66537;52.370;4.832;2023-09-30T06:58:18;16.60;;;7.57;;
77451;SDS011;66537;52.370;4.832;2023-09-30T07:00:46;23.20;;;8.63;;
77451;SDS011;66537;52.370;4.832;2023-09-30T07:03:16;25.73;;;8.82;;
77451;SDS011;66537;52.370;4.832;2023-09-30T07:05:42;18.35;;;7.88;;
77451;SDS011;66537;52.370;4.832;2023-09-30T07:08:08;19.88;;;8.85;;
77451;SDS011;66537;52.370;4.832;2023-09-30T07:10:37;26.17;;;8.95;;
77451;SDS011;66537;52.370;4.832;2023-09-30T07:13:04;21.73;;;9.45;;
77451;SDS011;66537;52.370;4.832;2023-09-30T07:15:31;24.02;;;10.13;;
77451;SDS011;66537;52.370;4.832;2023-09-30T07:17:57;25.90;;;9.70;;
77451;SDS011;66537;52.370;4.832;2023-09-30T07:20:22;24.75;;;10.35;;
77451;SDS011;66537;52.370;4.832;2023-09-30T07:22:50;30.88;;;12.13;;
77451;SDS011;66537;52.370;4.832;2023-09-30T07:25:16;27.92;;;11.55;;
77451;SDS011;66537;52.370;4.832;2023-09-30T07:27:45;24.90;;;10.85;;
77451;SDS011;66537;52.370;4.832;2023-09-30T07:30:11;27.42;;;11.20;;
77451;SDS011;66537;52.370;4.832;2023-09-30T07:32:41;21.80;;;10.07;;
77451;SDS011;66537;52.370;4.832;2023-09-30T07:35:07;25.92;;;10.27;;
77451;SDS011;66537;52.370;4.832;2023-09-30T07:37:33;26.13;;;10.27;;
77451;SDS011;66537;52.370;4.832;2023-09-30T07:39:58;23.37;;;10.27;;
77451;SDS011;66537;52.370;4.832;2023-09-30T07:42:24;28.50;;;11.02;;
77451;SDS011;66537;52.370;4.832;2023-09-30T07:44:50;22.55;;;9.70;;
77451;SDS011;66537;52.370;4.832;2023-09-30T07:47:15;28.40;;;11.27;;
77451;SDS011;66537;52.370;4.832;2023-09-30T07:49:41;26.83;;;11.18;;
77451;SDS011;66537;52.370;4.832;2023-09-30T07:52:06;22.10;;;9.27;;
77451;SDS011;66537;52.370;4.832;2023-09-30T07:54:32;24.50;;;10.73;;
77451;SDS011;66537;52.370;4.832;2023-09-30T07:56:57;23.83;;;10.07;;
77451;SDS011;66537;52.370;4.832;2023-09-30T07:59:24;24.02;;;9.88;;
77451;SDS011;66537;52.370;4.832;2023-09-30T08:01:49;25.63;;;9.57;;
77451;SDS011;66537;52.370;4.832;2023-09-30T08:04:15;27.17;;;9.77;;
77451;SDS011;66537;52.370;4.832;2023-09-30T08:06:40;22.15;;;10.48;;
77451;SDS011;66537;52.370;4.832;2023-09-30T08:09:05;26.20;;;9.93;;
77451;SDS011;66537;52.370;4.832;2023-09-30T08:11:36;23.77;;;9.50;;
77451;SDS011;66537;52.370;4.832;2023-09-30T08:14:03;21.73;;;8.35;;
77451;SDS011;66537;52.370;4.832;2023-09-30T08:16:38;18.92;;;8.15;;
77451;SDS011;66537;52.370;4.832;2023-09-30T08:19:03;18.85;;;8.40;;
77451;SDS011;66537;52.370;4.832;2023-09-30T08:21:30;19.10;;;7.80;;
77451;SDS011;66537;52.370;4.832;2023-09-30T08:23:55;17.25;;;7.72;;
77451;SDS011;66537;52.370;4.832;2023-09-30T08:26:22;25.42;;;7.97;;
77451;SDS011;66537;52.370;4.832;2023-09-30T08:28:47;16.38;;;7.45;;
77451;SDS011;66537;52.370;4.832;2023-09-30T08:31:12;18.70;;;7.75;;
77451;SDS011;66537;52.370;4.832;2023-09-30T08:33:39;20.50;;;7.22;;
77451;SDS011;66537;52.370;4.832;2023-09-30T08:36:06;17.80;;;7.53;;
77451;SDS011;66537;52.370;4.832;2023-09-30T08:38:36;17.70;;;7.75;;
77451;SDS011;66537;52.370;4.832;2023-09-30T08:41:03;20.08;;;7.32;;
77451;SDS011;66537;52.370;4.832;2023-09-30T08:43:29;19.63;;;7.47;;
77451;SDS011;66537;52.370;4.832;2023-09-30T08:45:57;18.40;;;7.35;;
77451;SDS011;66537;52.370;4.832;2023-09-30T08:48:27;19.42;;;7.15;;
77451;SDS011;66537;52.370;4.832;2023-09-30T08:50:53;20.75;;;6.95;;
77451;SDS011;66537;52.370;4.832;2023-09-30T08:53:22;21.05;;;7.18;;
77451;SDS011;66537;52.370;4.832;2023-09-30T08:55:50;12.75;;;5.47;;
77451;SDS011;66537;52.370;4.832;2023-09-30T08:58:19;16.38;;;6.00;;
77451;SDS011;66537;52.370;4.832;2023-09-30T09:00:44;13.95;;;5.63;;
77451;SDS011;66537;52.370;4.832;2023-09-30T09:03:10;13.98;;;5.75;;
77451;SDS011;66537;52.370;4.832;2023-09-30T09:05:36;17.92;;;5.38;;
77451;SDS011;66537;52.370;4.832;2023-09-30T09:08:01;17.40;;;4.97;;
77451;SDS011;66537;52.370;4.832;2023-09-30T09:10:27;16.48;;;5.88;;
77451;SDS011;66537;52.370;4.832;2023-09-30T09:12:57;14.38;;;4.30;;
77451;SDS011;66537;52.370;4.832;2023-09-30T09:15:27;18.98;;;5.00;;
77451;SDS011;66537;52.370;4.832;2023-09-30T09:17:56;15.63;;;3.40;;
77451;SDS011;66537;52.370;4.832;2023-09-30T09:20:23;15.13;;;3.95;;
77451;SDS011;66537;52.370;4.832;2023-09-30T09:22:54;12.32;;;4.10;;
77451;SDS011;66537;52.370;4.832;2023-09-30T09:25:23;18.65;;;4.45;;
77451;SDS011;66537;52.370;4.832;2023-09-30T09:27:49;18.90;;;6.10;;
77451;SDS011;66537;52.370;4.832;2023-09-30T09:30:18;17.55;;;6.18;;
77451;SDS011;66537;52.370;4.832;2023-09-30T09:33:00;19.15;;;6.20;;
77451;SDS011;66537;52.370;4.832;2023-09-30T09:35:28;16.52;;;5.03;;
77451;SDS011;66537;52.370;4.832;2023-09-30T09:38:05;10.30;;;2.00;;
77451;SDS011;66537;52.370;4.832;2023-09-30T09:40:35;12.63;;;2.58;;
77451;SDS011;66537;52.370;4.832;2023-09-30T09:43:03;13.07;;;1.83;;
77451;SDS011;66537;52.370;4.832;2023-09-30T09:45:30;10.13;;;2.08;;
77451;SDS011;66537;52.370;4.832;2023-09-30T09:47:58;8.55;;;2.20;;
77451;SDS011;66537;52.370;4.832;2023-09-30T09:50:23;14.75;;;2.30;;
77451;SDS011;66537;52.370;4.832;2023-09-30T09:52:49;14.90;;;2.90;;
77451;SDS011;66537;52.370;4.832;2023-09-30T09:55:20;13.63;;;2.83;;
77451;SDS011;66537;52.370;4.832;2023-09-30T09:57:47;11.52;;;2.13;;
77451;SDS011;66537;52.370;4.832;2023-09-30T10:00:23;15.60;;;2.33;;
77451;SDS011;66537;52.370;4.832;2023-09-30T10:02:50;12.38;;;2.33;;
77451;SDS011;66537;52.370;4.832;2023-09-30T10:05:16;12.75;;;2.22;;
77451;SDS011;66537;52.370;4.832;2023-09-30T10:07:46;10.73;;;1.80;;
77451;SDS011;66537;52.370;4.832;2023-09-30T10:10:17;9.30;;;2.22;;
77451;SDS011;66537;52.370;4.832;2023-09-30T10:12:44;12.07;;;2.30;;
77451;SDS011;66537;52.370;4.832;2023-09-30T10:20:27;10.68;;;1.98;;
77451;SDS011;66537;52.370;4.832;2023-09-30T10:25:49;11.60;;;2.05;;
77451;SDS011;66537;52.370;4.832;2023-09-30T10:28:32;10.05;;;2.03;;
77451;SDS011;66537;52.370;4.832;2023-09-30T10:36:37;9.65;;;2.00;;
77451;SDS011;66537;52.370;4.832;2023-09-30T10:39:04;13.45;;;2.17;;
77451;SDS011;66537;52.370;4.832;2023-09-30T10:46:54;9.40;;;1.50;;
77451;SDS011;66537;52.370;4.832;2023-09-30T10:49:49;12.38;;;1.77;;
77451;SDS011;66537;52.370;4.832;2023-09-30T10:52:21;11.23;;;1.70;;
77451;SDS011;66537;52.370;4.832;2023-09-30T10:54:48;8.43;;;1.80;;
77451;SDS011;66537;52.370;4.832;2023-09-30T10:57:14;8.75;;;1.25;;
77451;SDS011;66537;52.370;4.832;2023-09-30T11:00:09;9.18;;;1.88;;
77451;SDS011;66537;52.370;4.832;2023-09-30T11:02:46;11.57;;;1.95;;
77451;SDS011;66537;52.370;4.832;2023-09-30T11:05:12;9.85;;;1.83;;
77451;SDS011;66537;52.370;4.832;2023-09-30T11:07:39;8.60;;;1.80;;
77451;SDS011;66537;52.370;4.832;2023-09-30T11:10:05;11.60;;;1.65;;
77451;SDS011;66537;52.370;4.832;2023-09-30T11:12:31;11.38;;;1.33;;
77451;SDS011;66537;52.370;4.832;2023-09-30T11:15:03;11.65;;;1.83;;
77451;SDS011;66537;52.370;4.832;2023-09-30T11:17:29;10.82;;;1.83;;
77451;SDS011;66537;52.370;4.832;2023-09-30T11:19:54;9.43;;;1.00;;
77451;SDS011;66537;52.370;4.832;2023-09-30T11:22:20;11.80;;;1.90;;
77451;SDS011;66537;52.370;4.832;2023-09-30T11:24:46;10.07;;;1.65;;
77451;SDS011;66537;52.370;4.832;2023-09-30T11:27:11;11.73;;;1.70;;
77451;SDS011;66537;52.370;4.832;2023-09-30T11:29:37;8.57;;;1.42;;
77451;SDS011;66537;52.370;4.832;2023-09-30T11:32:22;13.48;;;1.83;;
77451;SDS011;66537;52.370;4.832;2023-09-30T11:34:52;9.30;;;1.70;;
77451;SDS011;66537;52.370;4.832;2023-09-30T11:37:18;7.85;;;1.45;;
77451;SDS011;66537;52.370;4.832;2023-09-30T11:39:43;10.77;;;1.55;;
77451;SDS011;66537;52.370;4.832;2023-09-30T11:42:16;8.98;;;1.48;;
77451;SDS011;66537;52.370;4.832;2023-09-30T11:44:44;8.88;;;1.35;;
77451;SDS011;66537;52.370;4.832;2023-09-30T11:47:11;8.88;;;1.20;;
77451;SDS011;66537;52.370;4.832;2023-09-30T11:49:38;8.18;;;1.70;;
77451;SDS011;66537;52.370;4.832;2023-09-30T11:52:07;7.88;;;1.60;;
77451;SDS011;66537;52.370;4.832;2023-09-30T11:54:41;11.93;;;1.40;;
77451;SDS011;66537;52.370;4.832;2023-09-30T11:57:14;9.35;;;1.20;;
77451;SDS011;66537;52.370;4.832;2023-09-30T12:02:06;10.27;;;1.23;;
77451;SDS011;66537;52.370;4.832;2023-09-30T12:04:36;10.65;;;1.67;;
77451;SDS011;66537;52.370;4.832;2023-09-30T12:07:02;11.25;;;2.17;;
77451;SDS011;66537;52.370;4.832;2023-09-30T12:09:27;8.88;;;1.40;;
77451;SDS011;66537;52.370;4.832;2023-09-30T12:11:54;13.98;;;1.75;;
77451;SDS011;66537;52.370;4.832;2023-09-30T12:14:20;8.35;;;1.80;;
77451;SDS011;66537;52.370;4.832;2023-09-30T12:16:46;11.88;;;1.83;;
77451;SDS011;66537;52.370;4.832;2023-09-30T12:19:16;9.30;;;1.92;;
77451;SDS011;66537;52.370;4.832;2023-09-30T12:21:43;12.63;;;1.77;;
77451;SDS011;66537;52.370;4.832;2023-09-30T12:24:11;9.00;;;1.90;;
77451;SDS011;66537;52.370;4.832;2023-09-30T12:26:41;13.15;;;1.58;;
77451;SDS011;66537;52.370;4.832;2023-09-30T12:29:07;9.48;;;1.45;;
77451;SDS011;66537;52.370;4.832;2023-09-30T12:31:34;12.82;;;1.88;;
77451;SDS011;66537;52.370;4.832;2023-09-30T12:33:59;11.95;;;2.08;;
77451;SDS011;66537;52.370;4.832;2023-09-30T12:36:24;14.02;;;1.70;;
77451;SDS011;66537;52.370;4.832;2023-09-30T12:38:50;14.57;;;2.10;;
77451;SDS011;66537;52.370;4.832;2023-09-30T12:41:15;14.13;;;2.00;;
77451;SDS011;66537;52.370;4.832;2023-09-30T12:43:41;10.95;;;1.55;;
77451;SDS011;66537;52.370;4.832;2023-09-30T12:46:07;9.25;;;1.52;;
77451;SDS011;66537;52.370;4.832;2023-09-30T12:48:34;10.70;;;1.73;;
77451;SDS011;66537;52.370;4.832;2023-09-30T12:50:59;11.55;;;2.15;;
77451;SDS011;66537;52.370;4.832;2023-09-30T12:53:25;12.80;;;2.05;;
77451;SDS011;66537;52.370;4.832;2023-09-30T12:55:50;11.90;;;2.00;;
77451;SDS011;66537;52.370;4.832;2023-09-30T12:58:15;9.00;;;1.75;;
77451;SDS011;66537;52.370;4.832;2023-09-30T13:00:41;11.05;;;1.80;;
77451;SDS011;66537;52.370;4.832;2023-09-30T13:03:06;12.70;;;2.10;;
77451;SDS011;66537;52.370;4.832;2023-09-30T13:05:33;13.63;;;2.35;;
77451;SDS011;66537;52.370;4.832;2023-09-30T13:07:58;13.82;;;2.17;;
77451;SDS011;66537;52.370;4.832;2023-09-30T13:10:24;13.95;;;2.28;;
77451;SDS011;66537;52.370;4.832;2023-09-30T13:12:50;10.32;;;1.98;;
77451;SDS011;66537;52.370;4.832;2023-09-30T13:15:17;16.02;;;2.10;;
77451;SDS011;66537;52.370;4.832;2023-09-30T13:17:43;14.90;;;2.85;;
77451;SDS011;66537;52.370;4.832;2023-09-30T13:20:09;18.35;;;5.35;;
77451;SDS011;66537;52.370;4.832;2023-09-30T13:22:36;18.95;;;2.20;;
77451;SDS011;66537;52.370;4.832;2023-09-30T13:25:03;15.05;;;2.28;;
77451;SDS011;66537;52.370;4.832;2023-09-30T13:27:30;12.20;;;2.38;;
77451;SDS011;66537;52.370;4.832;2023-09-30T13:29:56;12.45;;;3.08;;
77451;SDS011;66537;52.370;4.832;2023-09-30T13:32:23;14.25;;;2.25;;
77451;SDS011;66537;52.370;4.832;2023-09-30T13:34:50;15.90;;;3.22;;
77451;SDS011;66537;52.370;4.832;2023-09-30T13:37:16;14.57;;;2.17;;
77451;SDS011;66537;52.370;4.832;2023-09-30T13:39:41;13.63;;;3.00;;
77451;SDS011;66537;52.370;4.832;2023-09-30T13:42:06;14.02;;;2.50;;
77451;SDS011;66537;52.370;4.832;2023-09-30T13:44:32;16.70;;;2.97;;
77451;SDS011;66537;52.370;4.832;2023-09-30T13:46:57;9.52;;;2.17;;
77451;SDS011;66537;52.370;4.832;2023-09-30T13:49:23;12.48;;;3.20;;
77451;SDS011;66537;52.370;4.832;2023-09-30T13:51:48;16.55;;;3.17;;
77451;SDS011;66537;52.370;4.832;2023-09-30T13:54:13;15.07;;;3.47;;
77451;SDS011;66537;52.370;4.832;2023-09-30T13:56:40;11.73;;;2.03;;
77451;SDS011;66537;52.370;4.832;2023-09-30T13:59:05;13.18;;;3.30;;
77451;SDS011;66537;52.370;4.832;2023-09-30T14:01:30;16.25;;;3.75;;
77451;SDS011;66537;52.370;4.832;2023-09-30T14:03:56;23.38;;;4.30;;
77451;SDS011;66537;52.370;4.832;2023-09-30T14:06:23;14.00;;;3.22;;
77451;SDS011;66537;52.370;4.832;2023-09-30T14:08:48;24.70;;;6.28;;
77451;SDS011;66537;52.370;4.832;2023-09-30T14:11:15;19.63;;;4.63;;
77451;SDS011;66537;52.370;4.832;2023-09-30T14:13:40;15.73;;;3.50;;
77451;SDS011;66537;52.370;4.832;2023-09-30T14:16:06;14.27;;;2.97;;
77451;SDS011;66537;52.370;4.832;2023-09-30T14:18:34;11.63;;;2.60;;
77451;SDS011;66537;52.370;4.832;2023-09-30T14:21:01;14.07;;;4.00;;
77451;SDS011;66537;52.370;4.832;2023-09-30T14:23:26;17.38;;;2.92;;
77451;SDS011;66537;52.370;4.832;2023-09-30T14:25:54;13.27;;;3.55;;
77451;SDS011;66537;52.370;4.832;2023-09-30T14:28:24;15.77;;;2.28;;
77451;SDS011;66537;52.370;4.832;2023-09-30T14:30:50;15.07;;;2.08;;
77451;SDS011;66537;52.370;4.832;2023-09-30T14:33:15;17.88;;;4.20;;
77451;SDS011;66537;52.370;4.832;2023-09-30T14:35:41;14.73;;;2.85;;
77451;SDS011;66537;52.370;4.832;2023-09-30T14:38:08;12.05;;;2.20;;
77451;SDS011;66537;52.370;4.832;2023-09-30T14:40:36;12.82;;;2.65;;
77451;SDS011;66537;52.370;4.832;2023-09-30T14:43:04;12.52;;;2.60;;
77451;SDS011;66537;52.370;4.832;2023-09-30T14:45:30;13.00;;;2.33;;
77451;SDS011;66537;52.370;4.832;2023-09-30T14:47:56;14.23;;;2.50;;
77451;SDS011;66537;52.370;4.832;2023-09-30T14:50:21;16.05;;;2.70;;
77451;SDS011;66537;52.370;4.832;2023-09-30T14:52:47;11.63;;;2.25;;
77451;SDS011;66537;52.370;4.832;2023-09-30T14:55:12;12.40;;;2.20;;